sensor_id;sensor_type;location;lat;lon;timestamp;P1;durP1;ratioP1;P2;durP2;ratioP2
57401;SDS011;43226;51.110;6.998;2023-03-03T00:00:40;40.03;;;19.20;;
57401;SDS011;43226;51.110;6.998;2023-03-03T00:03:06;35.70;;;18.43;;
57401;SDS011;43226;51.110;6.998;2023-03-03T00:05:31;40.83;;;19.87;;
57401;SDS011;43226;51.110;6.998;2023-03-03T00:07:57;38.10;;;18.70;;
57401;SDS011;43226;51.110;6.998;2023-03-03T00:10:23;36.57;;;19.30;;
57401;SDS011;43226;51.110;6.998;2023-03-03T00:12:48;38.80;;;18.53;;
57401;SDS011;43226;51.110;6.998;2023-03-03T00:15:15;38.63;;;18.90;;
57401;SDS011;43226;51.110;6.998;2023-03-03T00:17:41;47.23;;;22.03;;
57401;SDS011;43226;51.110;6.998;2023-03-03T00:20:39;42.20;;;18.60;;
57401;SDS011;43226;51.110;6.998;2023-03-03T00:23:04;40.27;;;17.60;;
57401;SDS011;43226;51.110;6.998;2023-03-03T00:25:32;39.23;;;19.83;;
57401;SDS011;43226;51.110;6.998;2023-03-03T00:28:15;43.00;;;20.33;;
57401;SDS011;43226;51.110;6.998;2023-03-03T00:30:42;37.40;;;18.87;;
57401;SDS011;43226;51.110;6.998;2023-03-03T00:35:45;41.30;;;21.50;;
57401;SDS011;43226;51.110;6.998;2023-03-03T00:38:11;48.23;;;21.57;;
57401;SDS011;43226;51.110;6.998;2023-03-03T00:40:39;42.23;;;19.87;;
57401;SDS011;43226;51.110;6.998;2023-03-03T00:45:45;38.90;;;18.60;;
57401;SDS011;43226;51.110;6.998;2023-03-03T00:48:24;41.07;;;19.40;;
57401;SDS011;43226;51.110;6.998;2023-03-03T00:50:50;42.60;;;19.33;;
57401;SDS011;43226;51.110;6.998;2023-03-03T00:53:16;37.33;;;17.90;;
57401;SDS011;43226;51.110;6.998;2023-03-03T00:55:42;43.70;;;21.03;;
57401;SDS011;43226;51.110;6.998;2023-03-03T00:58:07;43.27;;;18.27;;
57401;SDS011;43226;51.110;6.998;2023-03-03T01:00:33;38.70;;;19.03;;
57401;SDS011;43226;51.110;6.998;2023-03-03T01:03:03;41.10;;;18.40;;
57401;SDS011;43226;51.110;6.998;2023-03-03T01:05:29;33.10;;;18.17;;
57401;SDS011;43226;51.110;6.998;2023-03-03T01:07:55;36.60;;;17.53;;
57401;SDS011;43226;51.110;6.998;2023-03-03T01:10:20;36.37;;;17.67;;
57401;SDS011;43226;51.110;6.998;2023-03-03T01:12:45;38.40;;;18.60;;
57401;SDS011;43226;51.110;6.998;2023-03-03T01:15:11;37.30;;;19.47;;
57401;SDS011;43226;51.110;6.998;2023-03-03T01:17:37;40.50;;;18.00;;
57401;SDS011;43226;51.110;6.998;2023-03-03T01:20:04;38.50;;;18.60;;
57401;SDS011;43226;51.110;6.998;2023-03-03T01:22:29;34.73;;;18.50;;
57401;SDS011;43226;51.110;6.998;2023-03-03T01:24:54;38.20;;;18.20;;
57401;SDS011;43226;51.110;6.998;2023-03-03T01:27:19;39.70;;;18.40;;
57401;SDS011;43226;51.110;6.998;2023-03-03T01:29:44;36.20;;;16.90;;
57401;SDS011;43226;51.110;6.998;2023-03-03T01:32:09;40.60;;;18.00;;
57401;SDS011;43226;51.110;6.998;2023-03-03T01:34:35;42.37;;;20.20;;
57401;SDS011;43226;51.110;6.998;2023-03-03T01:37:00;41.77;;;18.63;;
57401;SDS011;43226;51.110;6.998;2023-03-03T01:39:25;40.07;;;18.10;;
57401;SDS011;43226;51.110;6.998;2023-03-03T01:41:50;41.57;;;18.90;;
57401;SDS011;43226;51.110;6.998;2023-03-03T01:44:16;39.47;;;18.10;;
57401;SDS011;43226;51.110;6.998;2023-03-03T01:46:59;39.07;;;18.00;;
57401;SDS011;43226;51.110;6.998;2023-03-03T01:49:30;46.73;;;21.07;;
57401;SDS011;43226;51.110;6.998;2023-03-03T01:51:59;38.80;;;19.10;;
57401;SDS011;43226;51.110;6.998;2023-03-03T01:54:35;49.87;;;20.57;;
57401;SDS011;43226;51.110;6.998;2023-03-03T01:57:02;38.27;;;17.60;;
57401;SDS011;43226;51.110;6.998;2023-03-03T01:59:30;49.73;;;21.40;;
57401;SDS011;43226;51.110;6.998;2023-03-03T02:01:57;43.63;;;20.17;;
57401;SDS011;43226;51.110;6.998;2023-03-03T02:04:23;43.00;;;21.10;;
57401;SDS011;43226;51.110;6.998;2023-03-03T02:06:51;34.73;;;18.00;;
57401;SDS011;43226;51.110;6.998;2023-03-03T02:09:23;43.53;;;19.80;;
57401;SDS011;43226;51.110;6.998;2023-03-03T02:11:51;38.67;;;18.83;;
57401;SDS011;43226;51.110;6.998;2023-03-03T02:14:18;35.70;;;16.97;;
57401;SDS011;43226;51.110;6.998;2023-03-03T02:16:43;36.27;;;17.60;;
57401;SDS011;43226;51.110;6.998;2023-03-03T02:19:12;45.17;;;19.10;;
57401;SDS011;43226;51.110;6.998;2023-03-03T02:21:41;36.90;;;18.73;;
57401;SDS011;43226;51.110;6.998;2023-03-03T02:26:33;29.90;;;14.60;;
57401;SDS011;43226;51.110;6.998;2023-03-03T02:28:59;34.47;;;16.57;;
57401;SDS011;43226;51.110;6.998;2023-03-03T02:31:25;38.90;;;17.77;;
57401;SDS011;43226;51.110;6.998;2023-03-03T02:33:51;38.30;;;17.23;;
57401;SDS011;43226;51.110;6.998;2023-03-03T02:36:29;43.00;;;17.67;;
57401;SDS011;43226;51.110;6.998;2023-03-03T02:39:04;42.40;;;20.43;;
57401;SDS011;43226;51.110;6.998;2023-03-03T02:41:32;40.67;;;16.77;;
57401;SDS011;43226;51.110;6.998;2023-03-03T02:43:59;43.90;;;19.07;;
57401;SDS011;43226;51.110;6.998;2023-03-03T02:46:25;46.77;;;20.50;;
57401;SDS011;43226;51.110;6.998;2023-03-03T02:48:51;41.27;;;17.73;;
57401;SDS011;43226;51.110;6.998;2023-03-03T02:51:16;43.53;;;17.77;;
57401;SDS011;43226;51.110;6.998;2023-03-03T02:53:41;40.17;;;17.60;;
57401;SDS011;43226;51.110;6.998;2023-03-03T02:56:06;39.70;;;17.70;;
57401;SDS011;43226;51.110;6.998;2023-03-03T02:58:33;42.90;;;19.90;;
57401;SDS011;43226;51.110;6.998;2023-03-03T03:00:58;36.17;;;17.20;;
57401;SDS011;43226;51.110;6.998;2023-03-03T03:03:23;36.70;;;16.70;;
57401;SDS011;43226;51.110;6.998;2023-03-03T03:05:49;34.53;;;15.73;;
57401;SDS011;43226;51.110;6.998;2023-03-03T03:08:14;38.27;;;17.17;;
57401;SDS011;43226;51.110;6.998;2023-03-03T03:10:39;37.80;;;16.50;;
57401;SDS011;43226;51.110;6.998;2023-03-03T03:13:04;38.73;;;17.80;;
57401;SDS011;43226;51.110;6.998;2023-03-03T03:15:29;29.47;;;14.47;;
57401;SDS011;43226;51.110;6.998;2023-03-03T03:17:54;34.40;;;15.97;;
57401;SDS011;43226;51.110;6.998;2023-03-03T03:20:20;30.40;;;15.43;;
57401;SDS011;43226;51.110;6.998;2023-03-03T03:22:45;40.17;;;17.00;;
57401;SDS011;43226;51.110;6.998;2023-03-03T03:25:10;30.67;;;14.63;;
57401;SDS011;43226;51.110;6.998;2023-03-03T03:27:36;32.53;;;15.57;;
57401;SDS011;43226;51.110;6.998;2023-03-03T03:30:01;31.00;;;14.93;;
57401;SDS011;43226;51.110;6.998;2023-03-03T03:32:26;36.20;;;17.00;;
57401;SDS011;43226;51.110;6.998;2023-03-03T03:34:51;34.83;;;15.77;;
57401;SDS011;43226;51.110;6.998;2023-03-03T03:37:16;34.27;;;15.60;;
57401;SDS011;43226;51.110;6.998;2023-03-03T03:39:42;39.27;;;17.00;;
57401;SDS011;43226;51.110;6.998;2023-03-03T03:42:07;33.50;;;15.43;;
57401;SDS011;43226;51.110;6.998;2023-03-03T03:44:32;39.20;;;17.07;;
57401;SDS011;43226;51.110;6.998;2023-03-03T03:46:57;31.20;;;14.90;;
57401;SDS011;43226;51.110;6.998;2023-03-03T03:49:22;40.20;;;17.50;;
57401;SDS011;43226;51.110;6.998;2023-03-03T03:51:48;34.40;;;15.20;;
57401;SDS011;43226;51.110;6.998;2023-03-03T03:54:13;37.53;;;15.67;;
57401;SDS011;43226;51.110;6.998;2023-03-03T03:56:38;34.13;;;14.23;;
57401;SDS011;43226;51.110;6.998;2023-03-03T03:59:04;35.77;;;15.00;;
57401;SDS011;43226;51.110;6.998;2023-03-03T04:01:29;40.20;;;17.27;;
57401;SDS011;43226;51.110;6.998;2023-03-03T04:03:54;37.80;;;16.33;;
57401;SDS011;43226;51.110;6.998;2023-03-03T04:06:20;33.63;;;15.30;;
57401;SDS011;43226;51.110;6.998;2023-03-03T04:08:45;37.23;;;15.03;;
57401;SDS011;43226;51.110;6.998;2023-03-03T04:11:10;38.00;;;14.70;;
57401;SDS011;43226;51.110;6.998;2023-03-03T04:13:35;32.63;;;15.23;;
57401;SDS011;43226;51.110;6.998;2023-03-03T04:16:01;36.73;;;16.20;;
57401;SDS011;43226;51.110;6.998;2023-03-03T04:18:26;30.27;;;13.43;;
57401;SDS011;43226;51.110;6.998;2023-03-03T04:20:51;33.70;;;15.10;;
57401;SDS011;43226;51.110;6.998;2023-03-03T04:23:18;28.83;;;14.90;;
57401;SDS011;43226;51.110;6.998;2023-03-03T04:25:44;35.97;;;14.63;;
57401;SDS011;43226;51.110;6.998;2023-03-03T04:28:10;33.50;;;15.60;;
57401;SDS011;43226;51.110;6.998;2023-03-03T04:30:35;34.00;;;15.70;;
57401;SDS011;43226;51.110;6.998;2023-03-03T04:33:00;36.33;;;13.57;;
57401;SDS011;43226;51.110;6.998;2023-03-03T04:35:25;32.27;;;14.87;;
57401;SDS011;43226;51.110;6.998;2023-03-03T04:37:50;31.83;;;14.80;;
57401;SDS011;43226;51.110;6.998;2023-03-03T04:40:16;35.47;;;14.50;;
57401;SDS011;43226;51.110;6.998;2023-03-03T04:42:42;34.97;;;16.43;;
57401;SDS011;43226;51.110;6.998;2023-03-03T04:45:07;35.70;;;16.40;;
57401;SDS011;43226;51.110;6.998;2023-03-03T04:47:32;31.23;;;14.23;;
57401;SDS011;43226;51.110;6.998;2023-03-03T04:49:58;32.83;;;14.97;;
57401;SDS011;43226;51.110;6.998;2023-03-03T04:52:23;37.97;;;17.07;;
57401;SDS011;43226;51.110;6.998;2023-03-03T04:54:48;30.50;;;14.23;;
57401;SDS011;43226;51.110;6.998;2023-03-03T04:57:13;31.93;;;13.27;;
57401;SDS011;43226;51.110;6.998;2023-03-03T04:59:38;32.47;;;15.67;;
57401;SDS011;43226;51.110;6.998;2023-03-03T05:02:04;33.90;;;15.47;;
57401;SDS011;43226;51.110;6.998;2023-03-03T05:04:29;32.57;;;14.60;;
57401;SDS011;43226;51.110;6.998;2023-03-03T05:06:54;30.87;;;15.17;;
57401;SDS011;43226;51.110;6.998;2023-03-03T05:09:21;32.37;;;13.70;;
57401;SDS011;43226;51.110;6.998;2023-03-03T05:11:46;33.03;;;15.90;;
57401;SDS011;43226;51.110;6.998;2023-03-03T05:14:11;33.10;;;14.63;;
57401;SDS011;43226;51.110;6.998;2023-03-03T05:16:36;33.20;;;13.30;;
57401;SDS011;43226;51.110;6.998;2023-03-03T05:19:02;29.47;;;14.00;;
57401;SDS011;43226;51.110;6.998;2023-03-03T05:21:27;33.27;;;14.17;;
57401;SDS011;43226;51.110;6.998;2023-03-03T05:23:52;37.93;;;15.50;;
57401;SDS011;43226;51.110;6.998;2023-03-03T05:26:17;43.93;;;17.30;;
57401;SDS011;43226;51.110;6.998;2023-03-03T05:28:42;37.37;;;15.87;;
57401;SDS011;43226;51.110;6.998;2023-03-03T05:31:07;41.10;;;17.10;;
57401;SDS011;43226;51.110;6.998;2023-03-03T05:33:33;43.57;;;16.87;;
57401;SDS011;43226;51.110;6.998;2023-03-03T05:35:58;40.47;;;17.20;;
57401;SDS011;43226;51.110;6.998;2023-03-03T05:38:23;33.13;;;15.30;;
57401;SDS011;43226;51.110;6.998;2023-03-03T05:40:49;33.17;;;15.13;;
57401;SDS011;43226;51.110;6.998;2023-03-03T05:43:14;39.37;;;15.27;;
57401;SDS011;43226;51.110;6.998;2023-03-03T05:45:39;27.73;;;12.43;;
57401;SDS011;43226;51.110;6.998;2023-03-03T05:48:04;33.13;;;14.07;;
57401;SDS011;43226;51.110;6.998;2023-03-03T05:50:29;32.80;;;14.53;;
57401;SDS011;43226;51.110;6.998;2023-03-03T05:52:55;34.67;;;14.80;;
57401;SDS011;43226;51.110;6.998;2023-03-03T05:55:20;34.80;;;14.70;;
57401;SDS011;43226;51.110;6.998;2023-03-03T05:57:45;28.73;;;13.83;;
57401;SDS011;43226;51.110;6.998;2023-03-03T06:00:11;29.00;;;13.57;;
57401;SDS011;43226;51.110;6.998;2023-03-03T06:02:36;27.33;;;12.97;;
57401;SDS011;43226;51.110;6.998;2023-03-03T06:05:01;28.97;;;14.07;;
57401;SDS011;43226;51.110;6.998;2023-03-03T06:07:26;35.30;;;14.43;;
57401;SDS011;43226;51.110;6.998;2023-03-03T06:09:52;28.23;;;13.37;;
57401;SDS011;43226;51.110;6.998;2023-03-03T06:12:17;30.90;;;13.00;;
57401;SDS011;43226;51.110;6.998;2023-03-03T06:14:42;27.97;;;13.07;;
57401;SDS011;43226;51.110;6.998;2023-03-03T06:17:07;28.67;;;13.00;;
57401;SDS011;43226;51.110;6.998;2023-03-03T06:19:33;30.20;;;11.97;;
57401;SDS011;43226;51.110;6.998;2023-03-03T06:21:58;26.73;;;11.97;;
57401;SDS011;43226;51.110;6.998;2023-03-03T06:24:23;27.80;;;12.60;;
57401;SDS011;43226;51.110;6.998;2023-03-03T06:26:50;29.13;;;12.63;;
57401;SDS011;43226;51.110;6.998;2023-03-03T06:29:16;28.23;;;13.60;;
57401;SDS011;43226;51.110;6.998;2023-03-03T06:31:41;25.27;;;11.60;;
57401;SDS011;43226;51.110;6.998;2023-03-03T06:34:07;26.57;;;13.60;;
57401;SDS011;43226;51.110;6.998;2023-03-03T06:36:32;28.13;;;13.23;;
57401;SDS011;43226;51.110;6.998;2023-03-03T06:38:57;21.20;;;11.27;;
57401;SDS011;43226;51.110;6.998;2023-03-03T06:41:23;28.30;;;11.67;;
57401;SDS011;43226;51.110;6.998;2023-03-03T06:43:48;26.27;;;12.83;;
57401;SDS011;43226;51.110;6.998;2023-03-03T06:46:13;27.10;;;13.00;;
57401;SDS011;43226;51.110;6.998;2023-03-03T06:48:38;26.27;;;11.27;;
57401;SDS011;43226;51.110;6.998;2023-03-03T06:51:08;26.37;;;11.33;;
57401;SDS011;43226;51.110;6.998;2023-03-03T06:53:39;33.80;;;14.30;;
57401;SDS011;43226;51.110;6.998;2023-03-03T06:56:06;34.73;;;13.43;;
57401;SDS011;43226;51.110;6.998;2023-03-03T06:58:32;24.40;;;13.27;;
57401;SDS011;43226;51.110;6.998;2023-03-03T07:01:00;27.77;;;12.20;;
57401;SDS011;43226;51.110;6.998;2023-03-03T07:03:26;29.20;;;12.67;;
57401;SDS011;43226;51.110;6.998;2023-03-03T07:05:53;26.80;;;12.70;;
57401;SDS011;43226;51.110;6.998;2023-03-03T07:08:20;32.30;;;13.87;;
57401;SDS011;43226;51.110;6.998;2023-03-03T07:10:45;31.90;;;13.83;;
57401;SDS011;43226;51.110;6.998;2023-03-03T07:13:21;28.77;;;13.30;;
57401;SDS011;43226;51.110;6.998;2023-03-03T07:15:47;23.93;;;11.63;;
57401;SDS011;43226;51.110;6.998;2023-03-03T07:18:22;27.23;;;12.80;;
57401;SDS011;43226;51.110;6.998;2023-03-03T07:20:49;29.17;;;13.87;;
57401;SDS011;43226;51.110;6.998;2023-03-03T07:23:17;29.90;;;14.13;;
57401;SDS011;43226;51.110;6.998;2023-03-03T07:25:45;25.97;;;13.10;;
57401;SDS011;43226;51.110;6.998;2023-03-03T07:28:14;33.73;;;13.50;;
57401;SDS011;43226;51.110;6.998;2023-03-03T07:30:43;30.77;;;13.00;;
57401;SDS011;43226;51.110;6.998;2023-03-03T07:33:15;28.73;;;13.10;;
57401;SDS011;43226;51.110;6.998;2023-03-03T07:35:43;29.10;;;12.30;;
57401;SDS011;43226;51.110;6.998;2023-03-03T07:38:22;34.10;;;13.90;;
57401;SDS011;43226;51.110;6.998;2023-03-03T07:40:49;29.43;;;13.57;;
57401;SDS011;43226;51.110;6.998;2023-03-03T07:43:26;27.73;;;13.27;;
57401;SDS011;43226;51.110;6.998;2023-03-03T07:45:55;25.00;;;12.20;;
57401;SDS011;43226;51.110;6.998;2023-03-03T07:48:25;27.87;;;13.43;;
57401;SDS011;43226;51.110;6.998;2023-03-03T07:50:54;32.93;;;14.40;;
57401;SDS011;43226;51.110;6.998;2023-03-03T07:53:26;26.30;;;12.40;;
57401;SDS011;43226;51.110;6.998;2023-03-03T07:55:53;27.57;;;13.03;;
57401;SDS011;43226;51.110;6.998;2023-03-03T07:58:22;31.00;;;13.77;;
57401;SDS011;43226;51.110;6.998;2023-03-03T08:03:32;34.13;;;13.73;;
57401;SDS011;43226;51.110;6.998;2023-03-03T08:05:59;31.77;;;13.27;;
57401;SDS011;43226;51.110;6.998;2023-03-03T08:08:33;25.73;;;12.17;;
57401;SDS011;43226;51.110;6.998;2023-03-03T08:11:00;25.27;;;12.60;;
57401;SDS011;43226;51.110;6.998;2023-03-03T08:15:59;32.17;;;13.88;;
57401;SDS011;43226;51.110;6.998;2023-03-03T08:18:29;29.90;;;12.77;;
57401;SDS011;43226;51.110;6.998;2023-03-03T08:20:58;30.90;;;13.00;;
57401;SDS011;43226;51.110;6.998;2023-03-03T08:23:24;29.73;;;14.67;;
57401;SDS011;43226;51.110;6.998;2023-03-03T08:25:50;29.00;;;13.87;;
57401;SDS011;43226;51.110;6.998;2023-03-03T08:28:16;29.13;;;12.97;;
57401;SDS011;43226;51.110;6.998;2023-03-03T08:30:41;26.53;;;12.93;;
57401;SDS011;43226;51.110;6.998;2023-03-03T08:33:07;35.80;;;13.30;;
57401;SDS011;43226;51.110;6.998;2023-03-03T08:35:32;36.17;;;14.77;;
57401;SDS011;43226;51.110;6.998;2023-03-03T08:37:57;34.50;;;14.80;;
57401;SDS011;43226;51.110;6.998;2023-03-03T08:40:23;40.37;;;15.60;;
57401;SDS011;43226;51.110;6.998;2023-03-03T08:42:48;32.13;;;13.43;;
57401;SDS011;43226;51.110;6.998;2023-03-03T08:45:13;34.27;;;15.17;;
57401;SDS011;43226;51.110;6.998;2023-03-03T08:47:39;63.83;;;37.13;;
57401;SDS011;43226;51.110;6.998;2023-03-03T08:50:05;35.20;;;15.53;;
57401;SDS011;43226;51.110;6.998;2023-03-03T08:52:30;37.70;;;14.00;;
57401;SDS011;43226;51.110;6.998;2023-03-03T08:54:55;34.63;;;15.03;;
57401;SDS011;43226;51.110;6.998;2023-03-03T08:57:20;31.27;;;16.17;;
57401;SDS011;43226;51.110;6.998;2023-03-03T08:59:46;41.93;;;19.43;;
57401;SDS011;43226;51.110;6.998;2023-03-03T09:02:12;32.83;;;14.80;;
57401;SDS011;43226;51.110;6.998;2023-03-03T09:04:37;36.70;;;15.33;;
57401;SDS011;43226;51.110;6.998;2023-03-03T09:07:02;28.77;;;13.30;;
57401;SDS011;43226;51.110;6.998;2023-03-03T09:09:27;31.37;;;13.57;;
57401;SDS011;43226;51.110;6.998;2023-03-03T09:12:00;26.60;;;13.13;;
57401;SDS011;43226;51.110;6.998;2023-03-03T09:14:29;33.67;;;13.87;;
57401;SDS011;43226;51.110;6.998;2023-03-03T09:16:54;41.33;;;15.40;;
57401;SDS011;43226;51.110;6.998;2023-03-03T09:19:22;27.60;;;14.13;;
57401;SDS011;43226;51.110;6.998;2023-03-03T09:21:50;32.00;;;13.80;;
57401;SDS011;43226;51.110;6.998;2023-03-03T09:26:50;35.57;;;14.87;;
57401;SDS011;43226;51.110;6.998;2023-03-03T09:29:18;36.20;;;14.90;;
57401;SDS011;43226;51.110;6.998;2023-03-03T09:31:48;34.73;;;15.37;;
57401;SDS011;43226;51.110;6.998;2023-03-03T09:36:44;31.40;;;15.03;;
57401;SDS011;43226;51.110;6.998;2023-03-03T09:39:15;41.10;;;15.30;;
57401;SDS011;43226;51.110;6.998;2023-03-03T09:41:58;32.90;;;13.97;;
57401;SDS011;43226;51.110;6.998;2023-03-03T09:44:37;37.43;;;17.10;;
57401;SDS011;43226;51.110;6.998;2023-03-03T09:47:13;36.73;;;14.30;;
57401;SDS011;43226;51.110;6.998;2023-03-03T09:49:57;36.60;;;15.47;;
57401;SDS011;43226;51.110;6.998;2023-03-03T09:57:32;31.97;;;13.60;;
57401;SDS011;43226;51.110;6.998;2023-03-03T10:00:06;40.77;;;14.33;;
57401;SDS011;43226;51.110;6.998;2023-03-03T10:02:46;39.60;;;14.50;;
57401;SDS011;43226;51.110;6.998;2023-03-03T10:10:16;32.80;;;13.63;;
57401;SDS011;43226;51.110;6.998;2023-03-03T10:12:47;41.27;;;16.30;;
57401;SDS011;43226;51.110;6.998;2023-03-03T10:20:45;29.40;;;12.73;;
57401;SDS011;43226;51.110;6.998;2023-03-03T10:36:26;29.00;;;13.80;;
57401;SDS011;43226;51.110;6.998;2023-03-03T10:39:02;37.10;;;14.70;;
57401;SDS011;43226;51.110;6.998;2023-03-03T10:47:08;32.67;;;13.13;;
57401;SDS011;43226;51.110;6.998;2023-03-03T10:54:55;31.93;;;13.80;;
57401;SDS011;43226;51.110;6.998;2023-03-03T10:57:25;30.80;;;14.17;;
57401;SDS011;43226;51.110;6.998;2023-03-03T11:05:09;33.73;;;13.60;;
57401;SDS011;43226;51.110;6.998;2023-03-03T11:28:38;28.77;;;13.40;;
57401;SDS011;43226;51.110;6.998;2023-03-03T11:43:52;35.50;;;16.07;;
57401;SDS011;43226;51.110;6.998;2023-03-03T11:46:21;52.20;;;24.77;;
57401;SDS011;43226;51.110;6.998;2023-03-03T11:51:19;33.70;;;15.32;;
57401;SDS011;43226;51.110;6.998;2023-03-03T11:56:55;35.90;;;16.50;;
57401;SDS011;43226;51.110;6.998;2023-03-03T12:01:29;38.67;;;16.42;;
57401;SDS011;43226;51.110;6.998;2023-03-03T12:06:29;30.57;;;14.70;;
57401;SDS011;43226;51.110;6.998;2023-03-03T12:09:11;32.73;;;14.97;;
57401;SDS011;43226;51.110;6.998;2023-03-03T12:11:48;44.53;;;20.87;;
57401;SDS011;43226;51.110;6.998;2023-03-03T12:14:22;32.10;;;15.90;;
57401;SDS011;43226;51.110;6.998;2023-03-03T12:22:03;35.93;;;15.40;;
57401;SDS011;43226;51.110;6.998;2023-03-03T12:29:26;29.40;;;14.43;;
57401;SDS011;43226;51.110;6.998;2023-03-03T12:32:11;33.77;;;14.80;;
57401;SDS011;43226;51.110;6.998;2023-03-03T12:40:33;33.33;;;14.67;;
57401;SDS011;43226;51.110;6.998;2023-03-03T12:45:35;32.93;;;14.33;;
57401;SDS011;43226;51.110;6.998;2023-03-03T12:48:09;33.57;;;14.67;;
57401;SDS011;43226;51.110;6.998;2023-03-03T12:50:52;29.17;;;14.67;;
57401;SDS011;43226;51.110;6.998;2023-03-03T12:56:07;34.27;;;15.47;;
57401;SDS011;43226;51.110;6.998;2023-03-03T13:03:55;32.77;;;15.27;;
57401;SDS011;43226;51.110;6.998;2023-03-03T13:11:39;39.17;;;17.40;;
57401;SDS011;43226;51.110;6.998;2023-03-03T13:14:12;39.37;;;17.27;;
57401;SDS011;43226;51.110;6.998;2023-03-03T13:16:43;34.33;;;15.80;;
57401;SDS011;43226;51.110;6.998;2023-03-03T13:19:17;33.80;;;16.43;;
57401;SDS011;43226;51.110;6.998;2023-03-03T13:29:21;30.67;;;14.93;;
57401;SDS011;43226;51.110;6.998;2023-03-03T13:31:51;34.50;;;15.00;;
57401;SDS011;43226;51.110;6.998;2023-03-03T13:36:52;30.30;;;15.27;;
57401;SDS011;43226;51.110;6.998;2023-03-03T13:39:20;34.43;;;13.87;;
57401;SDS011;43226;51.110;6.998;2023-03-03T13:41:58;31.13;;;15.33;;
57401;SDS011;43226;51.110;6.998;2023-03-03T13:44:29;31.00;;;15.53;;
57401;SDS011;43226;51.110;6.998;2023-03-03T13:47:11;33.93;;;16.10;;
57401;SDS011;43226;51.110;6.998;2023-03-03T13:49:45;32.17;;;15.60;;
57401;SDS011;43226;51.110;6.998;2023-03-03T13:52:19;37.90;;;16.17;;
57401;SDS011;43226;51.110;6.998;2023-03-03T13:55:03;34.43;;;16.13;;
57401;SDS011;43226;51.110;6.998;2023-03-03T13:57:46;37.07;;;16.27;;
57401;SDS011;43226;51.110;6.998;2023-03-03T14:00:22;28.90;;;15.43;;
57401;SDS011;43226;51.110;6.998;2023-03-03T14:07:59;40.27;;;14.97;;
57401;SDS011;43226;51.110;6.998;2023-03-03T14:10:30;33.20;;;14.90;;
57401;SDS011;43226;51.110;6.998;2023-03-03T14:13:03;37.07;;;15.63;;
57401;SDS011;43226;51.110;6.998;2023-03-03T14:15:34;48.67;;;30.80;;
57401;SDS011;43226;51.110;6.998;2023-03-03T14:20:46;35.47;;;14.30;;
57401;SDS011;43226;51.110;6.998;2023-03-03T14:23:14;32.07;;;15.03;;
57401;SDS011;43226;51.110;6.998;2023-03-03T14:25:55;40.43;;;16.87;;
57401;SDS011;43226;51.110;6.998;2023-03-03T14:28:22;40.27;;;15.53;;
57401;SDS011;43226;51.110;6.998;2023-03-03T14:30:47;40.67;;;17.63;;
57401;SDS011;43226;51.110;6.998;2023-03-03T14:43:36;32.17;;;15.27;;
57401;SDS011;43226;51.110;6.998;2023-03-03T14:48:50;42.97;;;14.10;;
57401;SDS011;43226;51.110;6.998;2023-03-03T14:53:44;32.40;;;13.30;;
57401;SDS011;43226;51.110;6.998;2023-03-03T14:56:14;44.70;;;15.47;;
57401;SDS011;43226;51.110;6.998;2023-03-03T14:58:40;34.60;;;15.10;;
57401;SDS011;43226;51.110;6.998;2023-03-03T15:01:38;36.47;;;13.77;;
57401;SDS011;43226;51.110;6.998;2023-03-03T15:04:30;38.70;;;16.10;;
57401;SDS011;43226;51.110;6.998;2023-03-03T15:06:49;38.80;;;14.57;;
57401;SDS011;43226;51.110;6.998;2023-03-03T15:11:52;33.23;;;13.80;;
57401;SDS011;43226;51.110;6.998;2023-03-03T15:14:19;41.53;;;14.70;;
57401;SDS011;43226;51.110;6.998;2023-03-03T15:16:44;32.57;;;14.10;;
57401;SDS011;43226;51.110;6.998;2023-03-03T15:21:36;30.30;;;12.87;;
57401;SDS011;43226;51.110;6.998;2023-03-03T15:34:25;33.30;;;14.38;;
57401;SDS011;43226;51.110;6.998;2023-03-03T15:50:17;34.10;;;14.33;;
57401;SDS011;43226;51.110;6.998;2023-03-03T15:52:52;35.60;;;14.27;;
57401;SDS011;43226;51.110;6.998;2023-03-03T15:55:37;32.27;;;11.97;;
57401;SDS011;43226;51.110;6.998;2023-03-03T16:03:13;33.67;;;14.30;;
57401;SDS011;43226;51.110;6.998;2023-03-03T16:05:58;30.33;;;12.57;;
57401;SDS011;43226;51.110;6.998;2023-03-03T16:11:27;35.00;;;13.90;;
57401;SDS011;43226;51.110;6.998;2023-03-03T16:22:02;52.13;;;15.30;;
57401;SDS011;43226;51.110;6.998;2023-03-03T16:24:42;39.53;;;15.70;;
57401;SDS011;43226;51.110;6.998;2023-03-03T16:27:14;46.63;;;15.00;;
57401;SDS011;43226;51.110;6.998;2023-03-03T16:35:24;38.70;;;15.07;;
57401;SDS011;43226;51.110;6.998;2023-03-03T16:40:22;40.17;;;16.63;;
57401;SDS011;43226;51.110;6.998;2023-03-03T16:42:52;42.03;;;16.47;;
57401;SDS011;43226;51.110;6.998;2023-03-03T16:45:21;36.90;;;16.80;;
57401;SDS011;43226;51.110;6.998;2023-03-03T16:58:31;51.73;;;18.13;;
57401;SDS011;43226;51.110;6.998;2023-03-03T17:06:22;39.77;;;16.57;;
57401;SDS011;43226;51.110;6.998;2023-03-03T17:16:31;44.17;;;18.13;;
57401;SDS011;43226;51.110;6.998;2023-03-03T17:21:37;50.07;;;17.33;;
57401;SDS011;43226;51.110;6.998;2023-03-03T17:26:45;41.27;;;16.60;;
57401;SDS011;43226;51.110;6.998;2023-03-03T17:34:31;44.90;;;16.80;;
57401;SDS011;43226;51.110;6.998;2023-03-03T17:44:19;42.27;;;17.53;;
57401;SDS011;43226;51.110;6.998;2023-03-03T17:46:47;52.33;;;18.30;;
57401;SDS011;43226;51.110;6.998;2023-03-03T18:03:06;46.97;;;15.70;;
57401;SDS011;43226;51.110;6.998;2023-03-03T18:07:55;44.17;;;18.30;;
57401;SDS011;43226;51.110;6.998;2023-03-03T18:15:53;50.70;;;18.20;;
57401;SDS011;43226;51.110;6.998;2023-03-03T18:19:09;51.10;;;17.67;;
57401;SDS011;43226;51.110;6.998;2023-03-03T18:21:09;42.20;;;18.97;;
57401;SDS011;43226;51.110;6.998;2023-03-03T18:23:45;51.50;;;19.90;;
57401;SDS011;43226;51.110;6.998;2023-03-03T18:31:48;50.37;;;19.17;;
57401;SDS011;43226;51.110;6.998;2023-03-03T18:39:35;41.17;;;17.40;;
57401;SDS011;43226;51.110;6.998;2023-03-03T18:44:39;48.80;;;18.27;;
57401;SDS011;43226;51.110;6.998;2023-03-03T18:47:04;40.00;;;17.00;;
57401;SDS011;43226;51.110;6.998;2023-03-03T18:52:15;50.17;;;18.20;;
57401;SDS011;43226;51.110;6.998;2023-03-03T18:54:41;48.33;;;18.57;;
57401;SDS011;43226;51.110;6.998;2023-03-03T18:57:13;49.40;;;19.07;;
57401;SDS011;43226;51.110;6.998;2023-03-03T18:59:40;45.70;;;17.57;;
57401;SDS011;43226;51.110;6.998;2023-03-03T19:04:38;45.73;;;17.90;;
57401;SDS011;43226;51.110;6.998;2023-03-03T19:07:15;49.93;;;17.90;;
57401;SDS011;43226;51.110;6.998;2023-03-03T19:09:45;42.57;;;17.87;;
57401;SDS011;43226;51.110;6.998;2023-03-03T19:12:14;46.47;;;18.03;;
57401;SDS011;43226;51.110;6.998;2023-03-03T19:14:41;47.20;;;17.63;;
57401;SDS011;43226;51.110;6.998;2023-03-03T19:20:27;55.63;;;18.20;;
57401;SDS011;43226;51.110;6.998;2023-03-03T19:22:28;46.90;;;19.17;;
57401;SDS011;43226;51.110;6.998;2023-03-03T19:30:19;53.43;;;20.70;;
57401;SDS011;43226;51.110;6.998;2023-03-03T19:45:31;52.27;;;19.87;;
57401;SDS011;43226;51.110;6.998;2023-03-03T19:55:33;51.33;;;21.03;;
57401;SDS011;43226;51.110;6.998;2023-03-03T20:03:02;53.90;;;22.60;;
57401;SDS011;43226;51.110;6.998;2023-03-03T20:05:37;60.37;;;22.63;;
57401;SDS011;43226;51.110;6.998;2023-03-03T20:10:36;58.08;;;22.45;;